Time;durP1;ratioP1;P1;durP2;ratioP2;P2;SDS_P1;SDS_P2;PMS_P1;PMS_P2;Temp;Humidity;BMP_temperature;BMP_pressure;BME280_temperature;BME280_humidity;BME280_pressure;Samples;Min_cycle;Max_cycle;Signal;HPM_P1;HPM_P2
2024/01/26 00:01:47;;;;;;;3.10;2.33;;;11.20;1.00;;;;;;5102768;28;20502;-41
2024/01/26 00:04:12;;;;;;;2.43;2.23;;;11.20;1.00;;;;;;5120818;28;20175;-41
2024/01/26 00:06:38;;;;;;;2.90;1.97;;;11.20;1.00;;;;;;5121045;28;20202;-43
2024/01/26 00:09:09;;;;;;;2.30;2.10;;;11.20;1.00;;;;;;5119561;28;20194;-42
2024/01/26 00:11:35;;;;;;;3.93;2.37;;;11.20;1.00;;;;;;5101293;28;20264;-41
2024/01/26 00:14:00;;;;;;;2.67;2.47;;;11.20;1.00;;;;;;5083851;28;20433;-41
2024/01/26 00:16:26;;;;;;;2.40;2.20;;;11.20;1.00;;;;;;5119811;28;20248;-41
2024/01/26 00:18:51;;;;;;;1.97;1.80;;;11.20;1.00;;;;;;5115495;28;20275;-41
2024/01/26 00:21:18;;;;;;;2.30;2.10;;;11.20;1.00;;;;;;5119414;28;20179;-40
2024/01/26 00:23:44;;;;;;;2.20;1.60;;;11.20;1.00;;;;;;5120822;28;20422;-41
2024/01/26 00:26:12;;;;;;;1.83;1.47;;;11.20;1.00;;;;;;5120581;28;20461;-40
2024/01/26 00:28:37;;;;;;;1.70;1.53;;;11.20;1.00;;;;;;5120932;28;20812;-42
2024/01/26 00:31:03;;;;;;;1.63;1.40;;;11.20;1.00;;;;;;5119844;28;20413;-42
2024/01/26 00:33:29;;;;;;;1.93;1.30;;;11.20;1.00;;;;;;5119901;28;20183;-44
2024/01/26 00:35:54;;;;;;;1.60;1.10;;;11.20;1.00;;;;;;5120501;28;20187;-43
2024/01/26 00:38:20;;;;;;;1.67;1.03;;;11.20;1.00;;;;;;5101684;28;20206;-42
2024/01/26 00:40:46;;;;;;;1.20;0.80;;;11.20;1.00;;;;;;5120615;28;20624;-43
2024/01/26 00:43:11;;;;;;;1.40;0.93;;;11.20;1.00;;;;;;5120905;28;20176;-42
2024/01/26 00:45:37;;;;;;;1.10;0.83;;;11.10;1.00;;;;;;5102178;28;20433;-41
2024/01/26 00:48:03;;;;;;;1.23;0.97;;;11.10;1.00;;;;;;5120441;28;20203;-41
2024/01/26 00:50:29;;;;;;;1.77;0.90;;;11.10;1.00;;;;;;5119091;28;20180;-41
2024/01/26 00:52:54;;;;;;;2.00;0.70;;;11.10;1.00;;;;;;5102790;28;20501;-45
2024/01/26 00:55:20;;;;;;;1.57;0.87;;;11.00;1.00;;;;;;5119746;28;20657;-43
2024/01/26 00:57:45;;;;;;;5.00;1.40;;;11.00;1.00;;;;;;5118445;28;20183;-41
2024/01/26 01:00:12;;;;;;;2.97;1.07;;;11.00;99.90;;;;;;5119489;28;20212;-41
2024/01/26 01:02:38;;;;;;;1.60;0.63;;;11.40;1.00;;;;;;5119589;28;20553;-44
2024/01/26 01:05:06;;;;;;;2.03;0.87;;;12.10;1.00;;;;;;5101072;28;20428;-40
2024/01/26 01:07:32;;;;;;;1.97;0.50;;;12.90;1.00;;;;;;5119000;28;20172;-42
2024/01/26 01:09:57;;;;;;;1.07;0.80;;;13.50;1.00;;;;;;5099565;28;20816;-44
2024/01/26 01:12:23;;;;;;;1.50;1.07;;;13.70;99.90;;;;;;5101111;28;20462;-43
2024/01/26 01:14:48;;;;;;;1.30;1.13;;;13.60;99.90;;;;;;5119541;28;20285;-42
2024/01/26 01:17:14;;;;;;;1.60;0.80;;;13.40;1.00;;;;;;5119185;28;20188;-41
2024/01/26 01:19:40;;;;;;;1.23;0.80;;;13.00;99.90;;;;;;5119032;28;20595;-45
2024/01/26 01:22:05;;;;;;;1.60;1.00;;;12.70;1.90;;;;;;5118507;28;20244;-42
2024/01/26 01:24:31;;;;;;;1.37;0.93;;;12.40;1.00;;;;;;5118859;28;20186;-41
2024/01/26 01:26:57;;;;;;;1.73;1.30;;;12.20;1.00;;;;;;5100481;28;20241;-39
2024/01/26 01:29:22;;;;;;;2.00;1.80;;;11.90;1.00;;;;;;5117010;28;20210;-42
2024/01/26 01:31:48;;;;;;;1.57;1.37;;;11.80;1.00;;;;;;5118446;28;20454;-43
2024/01/26 01:34:13;;;;;;;1.70;1.40;;;11.60;1.00;;;;;;5118730;28;20251;-41
2024/01/26 01:36:39;;;;;;;1.90;1.30;;;11.50;13.20;;;;;;5117911;28;20210;-44
2024/01/26 01:39:05;;;;;;;1.70;1.47;;;11.40;39.00;;;;;;5117499;28;20199;-42
2024/01/26 01:41:31;;;;;;;1.70;1.53;;;11.30;72.30;;;;;;5118528;28;20426;-41
2024/01/26 01:43:57;;;;;;;2.43;1.67;;;11.30;96.70;;;;;;5118450;28;20843;-42
2024/01/26 01:46:22;;;;;;;1.73;1.20;;;11.20;99.90;;;;;;5118056;28;20233;-40
2024/01/26 01:48:49;;;;;;;1.50;1.17;;;11.20;99.90;;;;;;5117908;28;20525;-44
2024/01/26 01:51:14;;;;;;;1.87;1.30;;;11.10;99.90;;;;;;5082745;28;20584;-40
2024/01/26 01:53:40;;;;;;;1.60;1.00;;;11.10;99.90;;;;;;5098896;28;20436;-41
2024/01/26 01:56:10;;;;;;;1.53;1.10;;;11.10;99.90;;;;;;5098936;28;20176;-40
2024/01/26 01:58:37;;;;;;;1.50;1.23;;;11.10;99.90;;;;;;5117217;28;20762;-40
2024/01/26 02:01:04;;;;;;;1.63;1.03;;;11.00;99.90;;;;;;5116583;28;20426;-42
2024/01/26 02:03:30;;;;;;;2.97;1.03;;;11.00;99.90;;;;;;5098523;28;20463;-44
2024/01/26 02:05:56;;;;;;;1.10;0.80;;;11.00;99.90;;;;;;5116996;28;20451;-40
2024/01/26 02:08:21;;;;;;;1.70;1.20;;;11.00;99.90;;;;;;5117665;28;20271;-43
2024/01/26 02:10:47;;;;;;;1.17;0.93;;;11.00;99.90;;;;;;5117722;28;20526;-41
2024/01/26 02:13:12;;;;;;;1.63;1.03;;;11.00;99.90;;;;;;5118294;28;20194;-40
2024/01/26 02:15:38;;;;;;;1.60;1.00;;;10.90;99.90;;;;;;5117801;28;20184;-41
2024/01/26 02:18:04;;;;;;;1.03;0.70;;;10.90;99.90;;;;;;5117622;28;20274;-40
2024/01/26 02:20:29;;;;;;;1.50;1.03;;;10.90;99.90;;;;;;5117917;28;20219;-44
2024/01/26 02:22:55;;;;;;;1.40;1.10;;;10.90;99.90;;;;;;5118050;28;20792;-40
2024/01/26 02:25:20;;;;;;;1.40;0.93;;;10.90;99.90;;;;;;5116403;28;20223;-41
2024/01/26 02:27:46;;;;;;;1.13;0.80;;;10.90;99.90;;;;;;5117913;28;20244;-41
2024/01/26 02:30:12;;;;;;;1.17;0.70;;;10.90;99.90;;;;;;5117771;28;20499;-41
2024/01/26 02:32:37;;;;;;;1.10;0.70;;;10.90;99.90;;;;;;5117892;28;20650;-40
2024/01/26 02:35:03;;;;;;;1.23;0.80;;;10.90;99.90;;;;;;5099269;28;20520;-43
2024/01/26 02:37:29;;;;;;;1.70;0.80;;;10.90;99.90;;;;;;5117719;28;20449;-40
2024/01/26 02:39:55;;;;;;;0.93;0.60;;;10.90;95.80;;;;;;5117534;28;20214;-41
2024/01/26 02:42:21;;;;;;;1.73;0.80;;;10.90;88.80;;;;;;5116766;28;20186;-40
2024/01/26 02:44:46;;;;;;;1.10;0.80;;;10.80;78.30;;;;;;5116247;28;20429;-41
2024/01/26 02:47:12;;;;;;;1.50;0.73;;;10.80;52.50;;;;;;5117347;28;20176;-42
2024/01/26 02:49:42;;;;;;;0.90;0.60;;;10.80;99.90;;;;;;5116296;28;20279;-41
2024/01/26 02:52:07;;;;;;;1.20;0.63;;;10.70;99.90;;;;;;5117158;28;20760;-41
2024/01/26 02:54:33;;;;;;;1.17;0.80;;;10.80;99.90;;;;;;5117385;28;20528;-41
2024/01/26 02:56:58;;;;;;;2.03;0.93;;;10.80;99.90;;;;;;5098907;28;20271;-44
2024/01/26 02:59:24;;;;;;;1.30;0.70;;;10.80;99.90;;;;;;5116418;28;20455;-42
2024/01/26 03:01:49;;;;;;;0.90;0.60;;;10.70;99.90;;;;;;5121115;28;20240;-40
2024/01/26 03:04:15;;;;;;;1.27;0.87;;;10.70;99.90;;;;;;5121515;28;20176;-42
2024/01/26 03:06:41;;;;;;;1.63;1.00;;;10.70;99.90;;;;;;5102546;28;20190;-42
2024/01/26 03:09:07;;;;;;;1.50;1.00;;;10.80;99.90;;;;;;5120058;28;20205;-43
2024/01/26 03:11:37;;;;;;;1.20;0.80;;;10.70;99.90;;;;;;5120329;28;20183;-41
2024/01/26 03:14:04;;;;;;;1.90;1.10;;;10.70;99.90;;;;;;5119009;28;20443;-41
2024/01/26 03:16:30;;;;;;;1.63;0.97;;;10.70;99.90;;;;;;5120385;28;20421;-41
2024/01/26 03:18:55;;;;;;;3.30;1.27;;;10.70;99.90;;;;;;5119830;28;20458;-43
2024/01/26 03:21:21;;;;;;;1.50;1.10;;;10.70;99.90;;;;;;5120952;28;20521;-44
2024/01/26 03:23:46;;;;;;;3.37;1.40;;;10.70;99.90;;;;;;5120889;28;20287;-42
2024/01/26 03:26:12;;;;;;;1.97;1.20;;;10.70;99.90;;;;;;5121163;28;20231;-41
2024/01/26 03:28:37;;;;;;;1.40;1.20;;;10.70;99.90;;;;;;5120292;28;20279;-43
2024/01/26 03:31:03;;;;;;;1.67;1.47;;;10.60;99.90;;;;;;5119878;28;20505;-44
2024/01/26 03:33:29;;;;;;;2.00;1.70;;;10.60;99.90;;;;;;5119585;28;20248;-41
2024/01/26 03:35:56;;;;;;;2.63;1.80;;;10.60;99.90;;;;;;5100314;28;20429;-40
2024/01/26 03:38:21;;;;;;;1.70;1.40;;;10.60;99.90;;;;;;5119232;28;20175;-40
2024/01/26 03:40:47;;;;;;;2.20;1.83;;;10.60;99.90;;;;;;5119342;28;21038;-42
2024/01/26 03:43:12;;;;;;;1.77;1.40;;;10.60;99.90;;;;;;5101216;28;20172;-42
2024/01/26 03:45:38;;;;;;;1.70;1.23;;;;;;;;;;5121002;28;20179;-41
2024/01/26 03:48:04;;;;;;;1.97;1.57;;;10.60;99.90;;;;;;5119500;28;20184;-43
2024/01/26 03:50:29;;;;;;;2.53;1.73;;;10.60;99.90;;;;;;5102829;28;20434;-41
2024/01/26 03:52:55;;;;;;;1.67;1.47;;;10.60;99.90;;;;;;5121187;28;20205;-40
2024/01/26 03:55:21;;;;;;;1.53;1.37;;;10.60;99.90;;;;;;5119548;28;20187;-41
2024/01/26 03:57:46;;;;;;;2.30;1.73;;;10.60;99.90;;;;;;5120487;28;20266;-40
2024/01/26 04:00:12;;;;;;;2.10;1.50;;;10.60;99.90;;;;;;5120472;28;20492;-40
2024/01/26 04:02:38;;;;;;;1.53;1.43;;;10.60;99.90;;;;;;5118959;28;20192;-40
2024/01/26 04:05:04;;;;;;;2.80;1.53;;;10.60;99.90;;;;;;5119950;28;20684;-40
2024/01/26 04:07:31;;;;;;;5.77;1.57;;;10.60;99.90;;;;;;5120085;28;20168;-41
2024/01/26 04:09:56;;;;;;;1.80;1.03;;;10.60;99.90;;;;;;5120123;28;20410;-41
2024/01/26 04:12:23;;;;;;;2.00;1.53;;;10.50;99.90;;;;;;5119285;28;20429;-43
2024/01/26 04:14:49;;;;;;;1.50;0.93;;;10.50;99.90;;;;;;5118956;28;20172;-41
2024/01/26 04:17:14;;;;;;;2.47;1.03;;;10.50;99.90;;;;;;5119658;28;20429;-43
2024/01/26 04:19:40;;;;;;;2.17;1.17;;;10.50;99.90;;;;;;5119595;28;20910;-43
2024/01/26 04:22:05;;;;;;;1.23;1.13;;;10.50;99.90;;;;;;5120002;28;20164;-41
2024/01/26 04:24:31;;;;;;;2.30;1.13;;;10.50;99.90;;;;;;5119224;28;20180;-41
2024/01/26 04:26:57;;;;;;;2.53;0.80;;;10.50;99.90;;;;;;5119798;28;20284;-42
2024/01/26 04:29:22;;;;;;;1.73;1.40;;;10.40;99.90;;;;;;5118538;28;20207;-42
2024/01/26 04:31:48;;;;;;;1.70;1.27;;;10.40;99.90;;;;;;5118411;28;20188;-40
2024/01/26 04:34:13;;;;;;;1.50;1.00;;;10.40;99.90;;;;;;5118139;28;20176;-40
2024/01/26 04:36:46;;;;;;;2.17;1.10;;;10.40;99.90;;;;;;5118559;28;20194;-42
2024/01/26 04:39:11;;;;;;;4.17;1.00;;;10.40;99.90;;;;;;5118911;28;20593;-41
2024/01/26 04:41:37;;;;;;;1.20;1.00;;;10.30;99.90;;;;;;5118925;28;20459;-42
2024/01/26 04:44:03;;;;;;;1.63;1.10;;;10.40;99.90;;;;;;5119515;28;20168;-40
2024/01/26 04:46:28;;;;;;;1.30;0.70;;;10.30;99.90;;;;;;5119525;28;20328;-41
2024/01/26 04:48:54;;;;;;;2.43;1.30;;;10.30;99.90;;;;;;5118238;28;20171;-42
2024/01/26 04:51:19;;;;;;;2.10;1.13;;;10.30;99.90;;;;;;5118528;28;20180;-40
2024/01/26 04:53:45;;;;;;;1.50;1.17;;;10.30;99.90;;;;;;5117701;28;20267;-40
2024/01/26 04:56:13;;;;;;;1.40;1.10;;;10.30;99.90;;;;;;5117704;28;20226;-41
2024/01/26 04:58:39;;;;;;;1.57;1.00;;;10.30;99.90;;;;;;5118115;28;20267;-41
2024/01/26 05:01:04;;;;;;;1.23;1.00;;;10.30;99.90;;;;;;5118311;28;20564;-40
2024/01/26 05:03:30;;;;;;;3.07;1.10;;;10.30;99.90;;;;;;5119235;28;20180;-41
2024/01/26 05:05:55;;;;;;;1.40;1.10;;;10.30;99.90;;;;;;5118674;28;20199;-41
2024/01/26 05:08:21;;;;;;;1.30;1.00;;;10.30;99.90;;;;;;5118894;28;20194;-43
2024/01/26 05:10:47;;;;;;;3.00;1.50;;;10.30;99.90;;;;;;5099224;28;20550;-41
2024/01/26 05:13:12;;;;;;;2.57;1.23;;;10.30;99.90;;;;;;5116321;28;20448;-41
2024/01/26 05:15:38;;;;;;;4.37;1.20;;;10.30;99.90;;;;;;5117603;28;20187;-40
2024/01/26 05:18:04;;;;;;;1.37;1.20;;;10.30;99.90;;;;;;5099892;28;20524;-40
2024/01/26 05:20:29;;;;;;;1.70;1.20;;;10.30;99.90;;;;;;5118394;28;20280;-41
2024/01/26 05:22:55;;;;;;;1.30;1.10;;;10.30;99.90;;;;;;5117271;28;20792;-41
2024/01/26 05:25:21;;;;;;;2.13;1.33;;;10.30;99.90;;;;;;5118005;28;20700;-43
2024/01/26 05:27:46;;;;;;;1.50;0.90;;;10.30;99.90;;;;;;5118402;28;20172;-40
2024/01/26 05:30:12;;;;;;;1.53;1.13;;;10.30;99.90;;;;;;5117901;28;20200;-40
2024/01/26 05:32:37;;;;;;;1.50;1.10;;;10.30;99.90;;;;;;5117091;28;20245;-40
2024/01/26 05:35:03;;;;;;;1.10;1.00;;;10.30;99.90;;;;;;5118039;28;20184;-41
2024/01/26 05:37:29;;;;;;;2.17;1.00;;;10.30;99.90;;;;;;5117087;28;20175;-40
2024/01/26 05:39:54;;;;;;;1.90;1.30;;;10.30;99.90;;;;;;5117441;28;20473;-42
2024/01/26 05:42:20;;;;;;;1.93;1.17;;;10.30;99.90;;;;;;5117839;28;20180;-41
2024/01/26 05:44:45;;;;;;;2.43;1.27;;;10.30;99.90;;;;;;5116407;28;20188;-44
2024/01/26 05:47:11;;;;;;;1.93;1.30;;;10.30;99.90;;;;;;5115186;28;20180;-42
2024/01/26 05:49:37;;;;;;;2.10;1.30;;;10.30;99.90;;;;;;5117432;28;20191;-40
2024/01/26 05:52:02;;;;;;;1.93;1.10;;;10.30;99.90;;;;;;5117327;28;20287;-42
2024/01/26 05:54:28;;;;;;;1.97;1.37;;;10.20;99.90;;;;;;5116432;28;20215;-41
2024/01/26 05:56:53;;;;;;;1.53;1.33;;;10.20;99.90;;;;;;5116625;28;20194;-45
2024/01/26 05:59:19;;;;;;;1.20;0.90;;;10.20;99.90;;;;;;5112023;28;20756;-43
2024/01/26 06:01:44;;;;;;;1.57;1.00;;;10.20;99.90;;;;;;5118406;28;20532;-43
2024/01/26 06:04:10;;;;;;;1.83;1.00;;;10.20;99.90;;;;;;5117355;28;20190;-42
2024/01/26 06:06:36;;;;;;;2.77;1.37;;;10.20;99.90;;;;;;5099975;28;20244;-41
2024/01/26 06:09:02;;;;;;;2.20;1.17;;;10.10;99.90;;;;;;5115467;28;20199;-42
2024/01/26 06:11:28;;;;;;;2.53;1.40;;;10.10;99.90;;;;;;5116564;28;20425;-41
2024/01/26 06:13:54;;;;;;;2.30;1.20;;;10.00;99.90;;;;;;5117095;28;20429;-42
2024/01/26 06:16:19;;;;;;;2.43;1.47;;;10.00;99.90;;;;;;5115392;28;20245;-41
2024/01/26 06:18:45;;;;;;;7.00;1.47;;;10.00;99.90;;;;;;5116150;28;20414;-43
2024/01/26 06:21:11;;;;;;;2.00;1.30;;;10.00;99.90;;;;;;5098137;28;20203;-41
2024/01/26 06:23:40;;;;;;;1.83;1.00;;;10.00;99.90;;;;;;5117330;28;20186;-42
2024/01/26 06:26:05;;;;;;;1.30;1.03;;;10.10;99.90;;;;;;5098044;28;20493;-42
2024/01/26 06:28:33;;;;;;;1.53;1.17;;;10.10;1.00;;;;;;5117064;28;20409;-42
2024/01/26 06:31:00;;;;;;;1.73;1.20;;;10.10;1.00;;;;;;5094615;28;20198;-42
2024/01/26 06:33:27;;;;;;;1.30;1.00;;;10.10;1.00;;;;;;5113987;28;20466;-43
2024/01/26 06:35:53;;;;;;;2.40;1.20;;;10.10;1.00;;;;;;5077429;28;20533;-42
2024/01/26 06:38:19;;;;;;;2.87;1.40;;;10.10;1.00;;;;;;5096809;28;20541;-45
2024/01/26 06:40:46;;;;;;;2.00;1.13;;;10.10;1.00;;;;;;5095510;28;20243;-44
2024/01/26 06:43:15;;;;;;;1.20;1.00;;;10.10;99.90;;;;;;5094022;28;20233;-41
2024/01/26 06:45:40;;;;;;;1.27;1.00;;;10.10;1.00;;;;;;5077574;28;20411;-42
2024/01/26 06:48:06;;;;;;;2.13;1.17;;;10.20;1.00;;;;;;5093469;28;20428;-41
2024/01/26 06:50:33;;;;;;;2.50;1.20;;;10.20;1.00;;;;;;5077379;28;20310;-41
2024/01/26 06:52:58;;;;;;;2.07;1.70;;;10.20;99.90;;;;;;5096419;28;20176;-41
2024/01/26 06:55:24;;;;;;;2.50;1.20;;;10.20;99.90;;;;;;5094362;28;20430;-42
2024/01/26 06:57:50;;;;;;;1.70;1.50;;;10.20;99.90;;;;;;5094907;28;20418;-41
2024/01/26 07:00:16;;;;;;;2.27;1.50;;;10.20;99.90;;;;;;5095472;28;20473;-41
2024/01/26 07:02:42;;;;;;;1.47;1.10;;;10.20;99.90;;;;;;5092595;28;20176;-42
2024/01/26 07:05:08;;;;;;;1.30;1.00;;;10.30;99.90;;;;;;5094213;28;20785;-43
2024/01/26 07:07:33;;;;;;;1.40;1.00;;;10.30;99.90;;;;;;5094839;28;20199;-41
2024/01/26 07:09:59;;;;;;;1.40;0.80;;;10.30;99.90;;;;;;5094112;28;20179;-42
2024/01/26 07:12:24;;;;;;;1.40;0.93;;;10.30;99.90;;;;;;5093083;28;20401;-42
2024/01/26 07:14:50;;;;;;;1.40;0.97;;;10.30;99.90;;;;;;5093346;28;20199;-40
2024/01/26 07:17:15;;;;;;;1.63;1.00;;;10.30;99.90;;;;;;5093815;28;20208;-44
2024/01/26 07:19:41;;;;;;;1.13;0.93;;;10.30;99.90;;;;;;5094946;28;20211;-42
2024/01/26 07:22:06;;;;;;;1.30;0.90;;;10.30;99.90;;;;;;5093795;28;20211;-41
2024/01/26 07:24:32;;;;;;;1.40;1.00;;;10.30;99.90;;;;;;5093966;28;20184;-43
2024/01/26 07:26:57;;;;;;;2.27;1.20;;;10.30;99.90;;;;;;5077532;28;20188;-41
2024/01/26 07:29:23;;;;;;;4.10;1.20;;;10.40;99.90;;;;;;5094174;28;20200;-42
2024/01/26 07:31:50;;;;;;;2.30;1.20;;;10.40;99.90;;;;;;5060017;28;20291;-42
2024/01/26 07:34:16;;;;;;;1.50;1.10;;;10.40;99.90;;;;;;5060908;28;20267;-40
2024/01/26 07:36:42;;;;;;;3.40;1.50;;;10.40;99.90;;;;;;5075157;28;20780;-43
2024/01/26 07:39:07;;;;;;;1.70;1.03;;;10.50;99.90;;;;;;5077213;28;20188;-40
2024/01/26 07:41:33;;;;;;;1.70;1.00;;;10.50;99.90;;;;;;5061677;28;20434;-42
2024/01/26 07:44:00;;;;;;;3.50;1.03;;;10.50;99.90;;;;;;5095141;28;20499;-42
2024/01/26 07:46:25;;;;;;;2.13;1.00;;;10.50;99.90;;;;;;5098016;28;20516;-42
2024/01/26 07:48:54;;;;;;;1.80;1.30;;;10.60;99.90;;;;;;5099839;28;20406;-47
2024/01/26 07:51:19;;;;;;;1.53;0.90;;;10.60;99.90;;;;;;5097751;28;20288;-42
2024/01/26 07:53:45;;;;;;;1.93;1.00;;;10.70;99.90;;;;;;5080937;28;20445;-42
2024/01/26 07:56:11;;;;;;;1.43;1.20;;;10.70;99.90;;;;;;5098962;28;20573;-40
2024/01/26 07:58:38;;;;;;;2.10;1.33;;;10.80;99.90;;;;;;5081490;28;20585;-41
2024/01/26 08:01:05;;;;;;;1.63;1.10;;;10.80;84.60;;;;;;5099011;28;20472;-42
2024/01/26 08:03:31;;;;;;;2.43;1.50;;;10.90;27.10;;;;;;5098977;28;20812;-42
2024/01/26 08:05:57;;;;;;;2.17;1.20;;;11.00;1.00;;;;;;5081399;28;20491;-43
2024/01/26 08:08:22;;;;;;;1.50;1.10;;;11.00;1.00;;;;;;5097840;28;20176;-41
2024/01/26 08:10:48;;;;;;;1.73;1.07;;;11.10;1.00;;;;;;5078614;28;20259;-41
2024/01/26 08:13:13;;;;;;;1.60;1.00;;;11.20;1.00;;;;;;5095918;28;20191;-42
2024/01/26 08:15:39;;;;;;;1.40;1.10;;;11.30;1.00;;;;;;5096691;28;20181;-44
2024/01/26 08:18:04;;;;;;;3.30;1.77;;;11.30;1.00;;;;;;5098379;28;20180;-42
2024/01/26 08:20:30;;;;;;;2.10;1.30;;;11.50;99.90;;;;;;5097831;28;20216;-41
2024/01/26 08:22:56;;;;;;;1.40;1.00;;;11.50;99.90;;;;;;5098433;28;20173;-40
2024/01/26 08:25:21;;;;;;;1.87;1.33;;;11.60;99.90;;;;;;5098592;28;20212;-43
2024/01/26 08:27:47;;;;;;;2.20;1.60;;;11.70;1.00;;;;;;5098861;28;20481;-43
2024/01/26 08:30:12;;;;;;;1.30;1.10;;;11.90;1.00;;;;;;5096336;28;20169;-41
2024/01/26 08:32:38;;;;;;;1.40;1.23;;;12.00;1.00;;;;;;5096983;28;20526;-42
2024/01/26 08:35:09;;;;;;;3.30;0.90;;;12.10;99.90;;;;;;5097987;28;20435;-41
2024/01/26 08:37:35;;;;;;;1.53;0.83;;;12.40;1.00;;;;;;5097831;28;20230;-42
2024/01/26 08:40:00;;;;;;;6.77;1.47;;;13.10;99.90;;;;;;5078706;28;20859;-42
2024/01/26 08:42:26;;;;;;;9.07;1.40;;;13.80;99.90;;;;;;5096153;28;20263;-42
2024/01/26 08:44:52;;;;;;;2.60;0.90;;;14.40;99.90;;;;;;5097778;28;20243;-41
2024/01/26 08:47:17;;;;;;;2.00;0.87;;;15.00;1.00;;;;;;5099000;28;20422;-40
2024/01/26 08:49:43;;;;;;;6.30;2.03;;;15.60;99.90;;;;;;5081018;28;20189;-40
2024/01/26 08:52:08;;;;;;;4.97;0.90;;;16.00;99.90;;;;;;5098456;28;20164;-42
2024/01/26 08:54:34;;;;;;;2.57;1.00;;;16.20;99.90;;;;;;5098395;28;20204;-41
2024/01/26 08:56:59;;;;;;;1.77;1.10;;;16.50;15.50;;;;;;5097515;28;20558;-40
2024/01/26 08:59:25;;;;;;;3.93;1.23;;;16.60;10.20;;;;;;5080371;28;20610;-43
2024/01/26 09:01:51;;;;;;;2.07;1.10;;;16.70;99.90;;;;;;5096275;28;20211;-43
2024/01/26 09:04:16;;;;;;;2.73;1.23;;;16.80;99.90;;;;;;5095708;28;20165;-42
2024/01/26 09:06:42;;;;;;;6.53;1.60;;;16.80;1.00;;;;;;5079572;28;20208;-41
2024/01/26 09:09:08;;;;;;;5.67;1.40;;;16.80;1.00;;;;;;5096791;28;20173;-41
2024/01/26 09:11:34;;;;;;;4.80;1.30;;;16.90;99.90;;;;;;5097860;28;20267;-42
2024/01/26 09:14:01;;;;;;;2.63;1.23;;;16.90;99.90;;;;;;5096369;28;20724;-42
2024/01/26 09:16:26;;;;;;;2.40;0.83;;;17.00;11.70;;;;;;5097283;28;20406;-41
2024/01/26 09:18:52;;;;;;;3.23;1.37;;;17.10;1.00;;;;;;5095556;28;20204;-41
2024/01/26 09:21:18;;;;;;;2.30;1.37;;;17.20;1.00;;;;;;5097306;28;20239;-43
2024/01/26 09:23:43;;;;;;;2.33;1.17;;;17.20;1.00;;;;;;5096500;28;20223;-41
2024/01/26 09:26:10;;;;;;;3.67;1.40;;;17.30;99.90;;;;;;5096734;28;20235;-40
2024/01/26 09:28:36;;;;;;;3.70;1.37;;;17.20;99.90;;;;;;5096761;28;20196;-42
2024/01/26 09:31:01;;;;;;;5.43;1.60;;;17.20;99.90;;;;;;5096487;28;20438;-41
2024/01/26 09:33:27;;;;;;;9.73;1.43;;;17.10;1.00;;;;;;5096585;28;20434;-46
2024/01/26 09:35:54;;;;;;;2.07;1.50;;;17.10;99.90;;;;;;5097556;28;20181;-43
2024/01/26 09:38:19;;;;;;;1.67;1.30;;;16.80;1.00;;;;;;5096057;28;20203;-41
2024/01/26 09:40:45;;;;;;;2.37;1.07;;;16.30;1.00;;;;;;5078470;28;20485;-43
2024/01/26 09:43:11;;;;;;;1.90;1.63;;;15.80;1.00;;;;;;5096037;28;20172;-41
2024/01/26 09:45:37;;;;;;;1.83;1.20;;;15.30;1.00;;;;;;5093929;28;20333;-41
2024/01/26 09:48:04;;;;;;;1.80;1.57;;;15.00;1.00;;;;;;5077348;28;20554;-41
2024/01/26 09:50:31;;;;;;;2.60;1.77;;;14.70;1.00;;;;;;5096945;28;20422;-42
2024/01/26 09:53:00;;;;;;;1.77;1.50;;;14.40;1.00;;;;;;5076435;28;20448;-41
2024/01/26 09:55:26;;;;;;;2.00;1.30;;;14.20;57.70;;;;;;5093670;28;20429;-43
2024/01/26 09:57:53;;;;;;;1.40;1.30;;;14.10;99.90;;;;;;5076229;28;20422;-42
2024/01/26 10:00:19;;;;;;;6.17;1.83;;;14.10;99.90;;;;;;5094842;28;20216;-41
2024/01/26 10:02:45;;;;;;;2.77;1.50;;;14.00;99.90;;;;;;5096558;28;20426;-43
2024/01/26 10:05:13;;;;;;;2.13;1.27;;;13.90;99.90;;;;;;5078871;28;20427;-40
2024/01/26 10:07:38;;;;;;;1.90;1.70;;;13.80;99.90;;;;;;5096987;28;20180;-42
2024/01/26 10:10:05;;;;;;;2.90;1.20;;;13.70;1.00;;;;;;5093734;28;20499;-41
2024/01/26 10:12:30;;;;;;;2.20;1.63;;;13.70;1.00;;;;;;5095615;28;20433;-42
2024/01/26 10:15:10;;;;;;;1.50;1.30;;;13.60;1.00;;;;;;5078320;28;20483;-42
2024/01/26 10:17:36;;;;;;;2.30;1.43;;;13.60;90.00;;;;;;5096470;28;20481;-40
2024/01/26 10:20:18;;;;;;;2.57;1.47;;;13.60;99.90;;;;;;5096904;28;20469;-41
2024/01/26 10:22:45;;;;;;;1.77;1.33;;;13.50;99.90;;;;;;5097396;28;20430;-42
2024/01/26 10:25:11;;;;;;;1.80;1.60;;;13.50;99.90;;;;;;5097308;28;20549;-40
2024/01/26 10:27:36;;;;;;;2.20;1.23;;;13.40;99.90;;;;;;5078731;28;20430;-41
2024/01/26 10:30:04;;;;;;;2.07;1.60;;;13.40;99.90;;;;;;5060787;28;20874;-41
2024/01/26 10:32:30;;;;;;;1.80;1.20;;;13.40;99.90;;;;;;5078493;28;20219;-41
2024/01/26 10:35:04;;;;;;;4.03;1.60;;;13.30;1.00;;;;;;5097729;28;20500;-44
2024/01/26 10:37:34;;;;;;;1.73;1.40;;;13.30;1.00;;;;;;5079607;28;20419;-41
2024/01/26 10:40:01;;;;;;;2.37;1.60;;;13.30;1.00;;;;;;5095352;28;20465;-40
2024/01/26 10:42:32;;;;;;;1.40;1.10;;;13.40;1.00;;;;;;5094227;28;20691;-42
2024/01/26 10:45:00;;;;;;;1.87;1.33;;;13.40;1.00;;;;;;5096989;28;20433;-41
2024/01/26 10:47:26;;;;;;;1.80;1.37;;;13.40;1.00;;;;;;5095236;28;20433;-42
2024/01/26 10:49:58;;;;;;;2.40;1.60;;;13.40;1.00;;;;;;5060691;28;20663;-40
2024/01/26 10:52:24;;;;;;;1.90;1.30;;;13.40;1.00;;;;;;5095189;28;20722;-40
2024/01/26 10:54:50;;;;;;;1.90;1.43;;;13.40;1.00;;;;;;5076072;28;20623;-42
2024/01/26 10:57:17;;;;;;;1.50;1.10;;;13.40;8.80;;;;;;5092892;28;20698;-44
2024/01/26 10:59:43;;;;;;;1.93;1.70;;;13.40;29.90;;;;;;5095134;28;20486;-41
2024/01/26 11:02:30;;;;;;;2.43;1.77;;;13.40;75.60;;;;;;5095318;28;20434;-41
2024/01/26 11:05:01;;;;;;;2.33;1.80;;;13.50;96.70;;;;;;5095774;28;20711;-41
2024/01/26 11:07:27;;;;;;;2.07;1.50;;;13.50;99.90;;;;;;5074579;28;20425;-41
2024/01/26 11:10:05;;;;;;;2.30;1.80;;;13.50;99.90;;;;;;5077688;28;20410;-40
2024/01/26 11:12:34;;;;;;;1.63;1.47;;;13.60;99.90;;;;;;5075972;28;20433;-44
2024/01/26 11:15:09;;;;;;;2.40;1.83;;;13.60;33.10;;;;;;5058197;28;20588;-41
2024/01/26 11:17:51;;;;;;;1.60;1.23;;;13.60;63.60;;;;;;5075584;28;20820;-42
2024/01/26 11:20:31;;;;;;;1.43;1.30;;;13.60;58.70;;;;;;5076373;28;20830;-42
2024/01/26 11:23:08;;;;;;;1.80;1.60;;;13.40;99.90;;;;;;5080560;28;20584;-42
2024/01/26 11:25:36;;;;;;;1.80;1.60;;;13.40;99.90;;;;;;5059254;28;20558;-43
2024/01/26 11:28:03;;;;;;;1.80;1.47;;;13.30;1.00;;;;;;5097216;28;20426;-41
2024/01/26 11:30:29;;;;;;;2.00;1.77;;;13.20;1.00;;;;;;5097052;28;20701;-41
2024/01/26 11:32:56;;;;;;;2.70;1.53;;;13.10;1.00;;;;;;5078974;28;20426;-41
2024/01/26 11:35:21;;;;;;;2.80;1.50;;;13.10;99.90;;;;;;5077954;28;20288;-40
2024/01/26 11:37:49;;;;;;;4.07;1.73;;;13.00;1.00;;;;;;5097209;28;20467;-42
2024/01/26 11:40:14;;;;;;;2.27;2.07;;;13.00;99.90;;;;;;5080090;28;20645;-44
2024/01/26 11:42:43;;;;;;;1.97;1.40;;;12.90;99.90;;;;;;5097924;28;20525;-42
2024/01/26 11:45:12;;;;;;;1.90;1.40;;;12.90;99.90;;;;;;5098233;28;20188;-41
2024/01/26 11:47:41;;;;;;;3.10;1.43;;;12.90;99.90;;;;;;5097335;28;20845;-43
2024/01/26 11:50:08;;;;;;;1.60;1.50;;;12.90;1.00;;;;;;5079252;28;20947;-41
2024/01/26 11:52:35;;;;;;;2.30;1.90;;;12.90;1.00;;;;;;5097878;28;20724;-42
2024/01/26 11:55:01;;;;;;;2.83;1.60;;;12.90;1.00;;;;;;5098357;28;20426;-42
2024/01/26 11:57:30;;;;;;;2.40;1.83;;;12.80;1.00;;;;;;5098862;28;20716;-44
2024/01/26 11:59:58;;;;;;;2.10;1.47;;;12.80;1.00;;;;;;5078442;28;20474;-41
2024/01/26 12:02:24;;;;;;;2.13;1.47;;;12.80;1.00;;;;;;5098541;28;20422;-44
2024/01/26 12:04:49;;;;;;;2.20;1.83;;;12.70;99.90;;;;;;5080796;28;20701;-41
2024/01/26 12:07:15;;;;;;;1.37;1.27;;;12.70;99.90;;;;;;5079711;28;20456;-43
2024/01/26 12:09:41;;;;;;;1.63;1.30;;;12.70;99.90;;;;;;5079652;28;20589;-43
2024/01/26 12:12:08;;;;;;;1.83;1.50;;;12.70;99.90;;;;;;5097146;28;20218;-42
2024/01/26 12:14:34;;;;;;;1.30;1.10;;;12.70;1.00;;;;;;5080707;28;20264;-41
2024/01/26 12:17:03;;;;;;;1.60;1.37;;;12.70;1.00;;;;;;5098905;28;20541;-44
2024/01/26 12:19:29;;;;;;;1.60;1.30;;;12.60;1.00;;;;;;5063202;28;20480;-42
2024/01/26 12:21:56;;;;;;;1.70;1.50;;;12.70;1.00;;;;;;5080534;28;20525;-41
2024/01/26 12:24:23;;;;;;;1.63;1.30;;;12.70;1.00;;;;;;5097921;28;20191;-41
2024/01/26 12:26:50;;;;;;;1.77;1.30;;;12.70;1.00;;;;;;5097961;28;20494;-42
2024/01/26 12:29:16;;;;;;;1.90;1.20;;;12.70;1.00;;;;;;5099110;28;20423;-53
2024/01/26 12:31:41;;;;;;;2.23;1.00;;;12.70;1.00;;;;;;5079963;28;20426;-44
2024/01/26 12:34:12;;;;;;;1.30;1.07;;;12.70;1.00;;;;;;5080314;28;20203;-42
2024/01/26 12:36:37;;;;;;;1.50;1.27;;;12.80;1.00;;;;;;5097866;28;20249;-40
2024/01/26 12:39:03;;;;;;;1.47;1.30;;;12.80;1.00;;;;;;5077539;28;20406;-41
2024/01/26 12:41:29;;;;;;;1.60;1.30;;;12.80;1.00;;;;;;5096466;28;20203;-42
2024/01/26 12:43:56;;;;;;;1.93;1.47;;;12.70;1.00;;;;;;5096663;28;20667;-43
2024/01/26 12:46:21;;;;;;;1.57;1.30;;;12.70;1.00;;;;;;5096078;28;20169;-41